sensor_id;sensor_type;location;lat;lon;timestamp;P1;durP1;ratioP1;P2;durP2;ratioP2
70899;SDS011;67902;52.154;5.430;2023-04-19T00:01:59;15.88;;;6.95;;
70899;SDS011;67902;52.154;5.430;2023-04-19T00:04:25;16.05;;;6.88;;
70899;SDS011;67902;52.154;5.430;2023-04-19T00:06:52;13.35;;;6.25;;
70899;SDS011;67902;52.154;5.430;2023-04-19T00:09:18;16.63;;;7.25;;
70899;SDS011;67902;52.154;5.430;2023-04-19T00:11:45;14.77;;;7.10;;
70899;SDS011;67902;52.154;5.430;2023-04-19T00:14:11;13.75;;;6.63;;
70899;SDS011;67902;52.154;5.430;2023-04-19T00:16:38;14.60;;;6.18;;
70899;SDS011;67902;52.154;5.430;2023-04-19T00:19:05;15.27;;;6.68;;
70899;SDS011;67902;52.154;5.430;2023-04-19T00:21:32;13.60;;;6.40;;
70899;SDS011;67902;52.154;5.430;2023-04-19T00:23:58;15.95;;;6.78;;
70899;SDS011;67902;52.154;5.430;2023-04-19T00:26:24;14.68;;;6.30;;
70899;SDS011;67902;52.154;5.430;2023-04-19T00:28:51;16.83;;;6.53;;
70899;SDS011;67902;52.154;5.430;2023-04-19T00:31:18;13.73;;;6.70;;
70899;SDS011;67902;52.154;5.430;2023-04-19T00:33:44;13.65;;;5.90;;
70899;SDS011;67902;52.154;5.430;2023-04-19T00:36:11;14.27;;;6.68;;
70899;SDS011;67902;52.154;5.430;2023-04-19T00:38:37;15.88;;;6.53;;
70899;SDS011;67902;52.154;5.430;2023-04-19T00:41:03;15.32;;;6.85;;
70899;SDS011;67902;52.154;5.430;2023-04-19T00:43:30;14.55;;;6.43;;
70899;SDS011;67902;52.154;5.430;2023-04-19T00:45:56;13.85;;;6.72;;
70899;SDS011;67902;52.154;5.430;2023-04-19T00:48:23;13.15;;;6.65;;
70899;SDS011;67902;52.154;5.430;2023-04-19T00:50:50;15.55;;;7.13;;
70899;SDS011;67902;52.154;5.430;2023-04-19T00:53:17;20.08;;;7.13;;
70899;SDS011;67902;52.154;5.430;2023-04-19T00:55:43;16.05;;;7.28;;
70899;SDS011;67902;52.154;5.430;2023-04-19T00:58:10;14.35;;;6.10;;
70899;SDS011;67902;52.154;5.430;2023-04-19T01:00:37;14.25;;;6.90;;
70899;SDS011;67902;52.154;5.430;2023-04-19T01:03:03;13.88;;;6.80;;
70899;SDS011;67902;52.154;5.430;2023-04-19T01:05:30;14.77;;;6.72;;
70899;SDS011;67902;52.154;5.430;2023-04-19T01:07:56;16.15;;;7.00;;
70899;SDS011;67902;52.154;5.430;2023-04-19T01:10:23;17.02;;;7.00;;
70899;SDS011;67902;52.154;5.430;2023-04-19T01:12:50;16.80;;;7.32;;
70899;SDS011;67902;52.154;5.430;2023-04-19T01:15:16;14.10;;;6.82;;
70899;SDS011;67902;52.154;5.430;2023-04-19T01:17:43;16.08;;;7.15;;
70899;SDS011;67902;52.154;5.430;2023-04-19T01:20:09;15.40;;;7.13;;
70899;SDS011;67902;52.154;5.430;2023-04-19T01:22:36;18.05;;;7.80;;
70899;SDS011;67902;52.154;5.430;2023-04-19T01:25:03;19.65;;;7.90;;
70899;SDS011;67902;52.154;5.430;2023-04-19T01:27:30;16.00;;;7.70;;
70899;SDS011;67902;52.154;5.430;2023-04-19T01:29:56;18.35;;;7.80;;
70899;SDS011;67902;52.154;5.430;2023-04-19T01:32:23;16.50;;;8.23;;
70899;SDS011;67902;52.154;5.430;2023-04-19T01:34:51;20.63;;;7.88;;
70899;SDS011;67902;52.154;5.430;2023-04-19T01:37:18;17.63;;;7.55;;
70899;SDS011;67902;52.154;5.430;2023-04-19T01:39:44;18.40;;;8.30;;
70899;SDS011;67902;52.154;5.430;2023-04-19T01:42:11;17.30;;;7.68;;
70899;SDS011;67902;52.154;5.430;2023-04-19T01:44:37;16.77;;;8.07;;
70899;SDS011;67902;52.154;5.430;2023-04-19T01:47:04;16.50;;;7.70;;
70899;SDS011;67902;52.154;5.430;2023-04-19T01:49:31;21.10;;;8.27;;
70899;SDS011;67902;52.154;5.430;2023-04-19T01:51:57;15.77;;;7.95;;
70899;SDS011;67902;52.154;5.430;2023-04-19T01:54:24;17.67;;;8.23;;
70899;SDS011;67902;52.154;5.430;2023-04-19T01:56:50;16.77;;;8.13;;
70899;SDS011;67902;52.154;5.430;2023-04-19T01:59:16;16.75;;;8.25;;
70899;SDS011;67902;52.154;5.430;2023-04-19T02:01:43;20.27;;;8.70;;
70899;SDS011;67902;52.154;5.430;2023-04-19T02:04:09;19.88;;;8.02;;
70899;SDS011;67902;52.154;5.430;2023-04-19T02:06:36;20.00;;;8.10;;
70899;SDS011;67902;52.154;5.430;2023-04-19T02:09:02;17.48;;;8.05;;
70899;SDS011;67902;52.154;5.430;2023-04-19T02:11:29;18.08;;;8.20;;
70899;SDS011;67902;52.154;5.430;2023-04-19T02:13:55;20.52;;;8.73;;
70899;SDS011;67902;52.154;5.430;2023-04-19T02:16:22;16.50;;;7.97;;
70899;SDS011;67902;52.154;5.430;2023-04-19T02:18:48;18.17;;;7.85;;
70899;SDS011;67902;52.154;5.430;2023-04-19T02:21:15;16.02;;;7.53;;
70899;SDS011;67902;52.154;5.430;2023-04-19T02:23:41;18.05;;;7.90;;
70899;SDS011;67902;52.154;5.430;2023-04-19T02:26:07;19.63;;;7.97;;
70899;SDS011;67902;52.154;5.430;2023-04-19T02:28:34;17.20;;;7.78;;
70899;SDS011;67902;52.154;5.430;2023-04-19T02:31:03;17.08;;;8.40;;
70899;SDS011;67902;52.154;5.430;2023-04-19T02:33:30;16.83;;;7.85;;
70899;SDS011;67902;52.154;5.430;2023-04-19T02:35:57;16.60;;;8.00;;
70899;SDS011;67902;52.154;5.430;2023-04-19T02:38:24;16.70;;;7.65;;
70899;SDS011;67902;52.154;5.430;2023-04-19T02:40:50;18.13;;;8.02;;
70899;SDS011;67902;52.154;5.430;2023-04-19T02:43:17;17.02;;;8.10;;
70899;SDS011;67902;52.154;5.430;2023-04-19T02:45:43;20.42;;;9.05;;
70899;SDS011;67902;52.154;5.430;2023-04-19T02:48:10;18.75;;;8.52;;
70899;SDS011;67902;52.154;5.430;2023-04-19T02:50:36;17.13;;;8.02;;
70899;SDS011;67902;52.154;5.430;2023-04-19T02:53:03;17.63;;;7.97;;
70899;SDS011;67902;52.154;5.430;2023-04-19T02:55:30;17.05;;;8.10;;
70899;SDS011;67902;52.154;5.430;2023-04-19T02:57:56;17.70;;;8.00;;
70899;SDS011;67902;52.154;5.430;2023-04-19T03:00:23;19.08;;;8.40;;
70899;SDS011;67902;52.154;5.430;2023-04-19T03:02:49;17.35;;;7.82;;
70899;SDS011;67902;52.154;5.430;2023-04-19T03:05:16;15.75;;;7.38;;
70899;SDS011;67902;52.154;5.430;2023-04-19T03:07:43;17.00;;;7.95;;
70899;SDS011;67902;52.154;5.430;2023-04-19T03:10:09;17.63;;;7.07;;
70899;SDS011;67902;52.154;5.430;2023-04-19T03:12:36;16.35;;;7.00;;
70899;SDS011;67902;52.154;5.430;2023-04-19T03:15:02;16.73;;;7.90;;
70899;SDS011;67902;52.154;5.430;2023-04-19T03:17:29;15.13;;;7.65;;
70899;SDS011;67902;52.154;5.430;2023-04-19T03:19:56;16.08;;;7.13;;
70899;SDS011;67902;52.154;5.430;2023-04-19T03:22:22;16.45;;;7.82;;
70899;SDS011;67902;52.154;5.430;2023-04-19T03:24:49;15.02;;;7.00;;
70899;SDS011;67902;52.154;5.430;2023-04-19T03:27:15;16.50;;;6.85;;
70899;SDS011;67902;52.154;5.430;2023-04-19T03:29:42;13.82;;;6.45;;
70899;SDS011;67902;52.154;5.430;2023-04-19T03:32:08;15.73;;;7.28;;
70899;SDS011;67902;52.154;5.430;2023-04-19T03:34:35;17.67;;;6.93;;
70899;SDS011;67902;52.154;5.430;2023-04-19T03:37:01;12.57;;;6.15;;
70899;SDS011;67902;52.154;5.430;2023-04-19T03:39:27;14.32;;;6.63;;
70899;SDS011;67902;52.154;5.430;2023-04-19T03:41:54;16.95;;;6.68;;
70899;SDS011;67902;52.154;5.430;2023-04-19T03:44:20;15.18;;;6.72;;
70899;SDS011;67902;52.154;5.430;2023-04-19T03:46:47;16.83;;;7.38;;
70899;SDS011;67902;52.154;5.430;2023-04-19T03:49:14;14.30;;;6.63;;
70899;SDS011;67902;52.154;5.430;2023-04-19T03:51:40;16.80;;;6.82;;
70899;SDS011;67902;52.154;5.430;2023-04-19T03:54:06;14.63;;;6.60;;
70899;SDS011;67902;52.154;5.430;2023-04-19T03:56:33;14.20;;;6.35;;
70899;SDS011;67902;52.154;5.430;2023-04-19T03:58:59;14.57;;;7.25;;
70899;SDS011;67902;52.154;5.430;2023-04-19T04:01:26;14.05;;;6.78;;
70899;SDS011;67902;52.154;5.430;2023-04-19T04:03:53;16.60;;;6.80;;
70899;SDS011;67902;52.154;5.430;2023-04-19T04:06:19;17.52;;;6.47;;
70899;SDS011;67902;52.154;5.430;2023-04-19T04:08:46;14.52;;;6.80;;
70899;SDS011;67902;52.154;5.430;2023-04-19T04:11:12;16.13;;;6.57;;
70899;SDS011;67902;52.154;5.430;2023-04-19T04:13:39;16.95;;;6.40;;
70899;SDS011;67902;52.154;5.430;2023-04-19T04:16:05;15.38;;;6.80;;
70899;SDS011;67902;52.154;5.430;2023-04-19T04:18:32;13.77;;;5.95;;
70899;SDS011;67902;52.154;5.430;2023-04-19T04:20:58;14.38;;;6.45;;
70899;SDS011;67902;52.154;5.430;2023-04-19T04:23:26;12.40;;;6.10;;
70899;SDS011;67902;52.154;5.430;2023-04-19T04:25:59;13.80;;;5.95;;
70899;SDS011;67902;52.154;5.430;2023-04-19T04:28:26;14.95;;;6.25;;
70899;SDS011;67902;52.154;5.430;2023-04-19T04:30:54;14.52;;;6.53;;
70899;SDS011;67902;52.154;5.430;2023-04-19T04:33:23;14.15;;;6.47;;
70899;SDS011;67902;52.154;5.430;2023-04-19T04:35:51;13.05;;;6.15;;
70899;SDS011;67902;52.154;5.430;2023-04-19T04:38:18;14.20;;;6.05;;
70899;SDS011;67902;52.154;5.430;2023-04-19T04:40:50;16.17;;;6.13;;
70899;SDS011;67902;52.154;5.430;2023-04-19T04:43:23;13.73;;;6.13;;
70899;SDS011;67902;52.154;5.430;2023-04-19T04:45:50;13.43;;;6.20;;
70899;SDS011;67902;52.154;5.430;2023-04-19T04:48:17;11.98;;;5.97;;
70899;SDS011;67902;52.154;5.430;2023-04-19T04:50:43;13.13;;;5.65;;
70899;SDS011;67902;52.154;5.430;2023-04-19T04:53:10;14.52;;;7.07;;
70899;SDS011;67902;52.154;5.430;2023-04-19T04:55:40;13.88;;;6.15;;
70899;SDS011;67902;52.154;5.430;2023-04-19T04:58:06;14.32;;;5.95;;
70899;SDS011;67902;52.154;5.430;2023-04-19T05:00:32;14.23;;;5.80;;
70899;SDS011;67902;52.154;5.430;2023-04-19T05:02:59;12.68;;;5.85;;
70899;SDS011;67902;52.154;5.430;2023-04-19T05:05:28;12.82;;;5.93;;
70899;SDS011;67902;52.154;5.430;2023-04-19T05:07:54;14.75;;;5.82;;
70899;SDS011;67902;52.154;5.430;2023-04-19T05:10:21;13.60;;;6.00;;
70899;SDS011;67902;52.154;5.430;2023-04-19T05:12:47;13.43;;;5.90;;
70899;SDS011;67902;52.154;5.430;2023-04-19T05:15:14;12.98;;;5.80;;
70899;SDS011;67902;52.154;5.430;2023-04-19T05:17:40;15.40;;;6.30;;
70899;SDS011;67902;52.154;5.430;2023-04-19T05:20:08;16.05;;;6.18;;
70899;SDS011;67902;52.154;5.430;2023-04-19T05:22:35;14.50;;;5.90;;
70899;SDS011;67902;52.154;5.430;2023-04-19T05:25:01;12.95;;;5.72;;
70899;SDS011;67902;52.154;5.430;2023-04-19T05:27:28;15.35;;;5.95;;
70899;SDS011;67902;52.154;5.430;2023-04-19T05:29:54;11.55;;;5.35;;
70899;SDS011;67902;52.154;5.430;2023-04-19T05:32:20;13.68;;;5.82;;
70899;SDS011;67902;52.154;5.430;2023-04-19T05:34:47;14.73;;;5.53;;
70899;SDS011;67902;52.154;5.430;2023-04-19T05:37:14;14.70;;;5.43;;
70899;SDS011;67902;52.154;5.430;2023-04-19T05:39:40;12.23;;;5.57;;
70899;SDS011;67902;52.154;5.430;2023-04-19T05:42:09;11.70;;;5.30;;
70899;SDS011;67902;52.154;5.430;2023-04-19T05:44:36;10.57;;;5.13;;
70899;SDS011;67902;52.154;5.430;2023-04-19T05:47:02;13.70;;;6.25;;
70899;SDS011;67902;52.154;5.430;2023-04-19T05:49:29;12.77;;;5.47;;
70899;SDS011;67902;52.154;5.430;2023-04-19T05:51:55;11.63;;;5.03;;
70899;SDS011;67902;52.154;5.430;2023-04-19T05:54:22;12.00;;;5.75;;
70899;SDS011;67902;52.154;5.430;2023-04-19T05:56:48;12.68;;;5.00;;
70899;SDS011;67902;52.154;5.430;2023-04-19T05:59:15;13.25;;;5.82;;
70899;SDS011;67902;52.154;5.430;2023-04-19T06:01:41;14.25;;;5.15;;
70899;SDS011;67902;52.154;5.430;2023-04-19T06:04:08;13.02;;;5.30;;
70899;SDS011;67902;52.154;5.430;2023-04-19T06:06:34;11.23;;;4.75;;
70899;SDS011;67902;52.154;5.430;2023-04-19T06:09:03;11.15;;;4.50;;
70899;SDS011;67902;52.154;5.430;2023-04-19T06:11:29;10.82;;;4.72;;
70899;SDS011;67902;52.154;5.430;2023-04-19T06:14:04;16.25;;;5.82;;
70899;SDS011;67902;52.154;5.430;2023-04-19T06:16:31;11.68;;;5.40;;
70899;SDS011;67902;52.154;5.430;2023-04-19T06:18:57;11.80;;;4.75;;
70899;SDS011;67902;52.154;5.430;2023-04-19T06:21:24;10.35;;;4.55;;
70899;SDS011;67902;52.154;5.430;2023-04-19T06:23:50;10.00;;;4.60;;
70899;SDS011;67902;52.154;5.430;2023-04-19T06:26:17;9.95;;;4.65;;
70899;SDS011;67902;52.154;5.430;2023-04-19T06:28:43;9.98;;;4.53;;
70899;SDS011;67902;52.154;5.430;2023-04-19T06:31:09;11.00;;;4.38;;
70899;SDS011;67902;52.154;5.430;2023-04-19T06:33:37;9.50;;;4.32;;
70899;SDS011;67902;52.154;5.430;2023-04-19T06:36:03;13.18;;;4.25;;
70899;SDS011;67902;52.154;5.430;2023-04-19T06:38:31;8.15;;;4.05;;
70899;SDS011;67902;52.154;5.430;2023-04-19T06:40:57;10.63;;;4.10;;
70899;SDS011;67902;52.154;5.430;2023-04-19T06:43:23;9.63;;;4.43;;
70899;SDS011;67902;52.154;5.430;2023-04-19T06:45:56;12.50;;;4.18;;
70899;SDS011;67902;52.154;5.430;2023-04-19T06:48:26;8.38;;;3.83;;
70899;SDS011;67902;52.154;5.430;2023-04-19T06:50:53;7.60;;;3.53;;
70899;SDS011;67902;52.154;5.430;2023-04-19T06:53:20;8.02;;;3.78;;
70899;SDS011;67902;52.154;5.430;2023-04-19T06:55:46;9.07;;;3.72;;
70899;SDS011;67902;52.154;5.430;2023-04-19T06:58:13;8.38;;;3.67;;
70899;SDS011;67902;52.154;5.430;2023-04-19T07:00:39;7.57;;;3.30;;
70899;SDS011;67902;52.154;5.430;2023-04-19T07:03:05;7.75;;;3.67;;
70899;SDS011;67902;52.154;5.430;2023-04-19T07:05:32;10.57;;;3.90;;
70899;SDS011;67902;52.154;5.430;2023-04-19T07:07:59;8.82;;;4.00;;
70899;SDS011;67902;52.154;5.430;2023-04-19T07:10:25;9.82;;;3.63;;
70899;SDS011;67902;52.154;5.430;2023-04-19T07:12:51;9.10;;;3.60;;
70899;SDS011;67902;52.154;5.430;2023-04-19T07:15:18;8.57;;;3.45;;
70899;SDS011;67902;52.154;5.430;2023-04-19T07:17:44;10.23;;;3.85;;
70899;SDS011;67902;52.154;5.430;2023-04-19T07:20:12;8.65;;;3.63;;
70899;SDS011;67902;52.154;5.430;2023-04-19T07:22:38;11.15;;;3.42;;
70899;SDS011;67902;52.154;5.430;2023-04-19T07:25:04;9.15;;;3.50;;
70899;SDS011;67902;52.154;5.430;2023-04-19T07:27:31;8.60;;;2.90;;
70899;SDS011;67902;52.154;5.430;2023-04-19T07:29:57;7.45;;;3.15;;
70899;SDS011;67902;52.154;5.430;2023-04-19T07:32:24;7.68;;;3.13;;
70899;SDS011;67902;52.154;5.430;2023-04-19T07:34:50;9.52;;;3.50;;
70899;SDS011;67902;52.154;5.430;2023-04-19T07:37:18;8.00;;;3.15;;
70899;SDS011;67902;52.154;5.430;2023-04-19T07:39:44;8.77;;;3.13;;
70899;SDS011;67902;52.154;5.430;2023-04-19T07:42:11;8.30;;;3.20;;
70899;SDS011;67902;52.154;5.430;2023-04-19T07:44:37;6.35;;;2.88;;
70899;SDS011;67902;52.154;5.430;2023-04-19T07:47:03;7.00;;;3.10;;
70899;SDS011;67902;52.154;5.430;2023-04-19T07:49:31;8.57;;;3.20;;
70899;SDS011;67902;52.154;5.430;2023-04-19T07:51:59;8.75;;;3.33;;
70899;SDS011;67902;52.154;5.430;2023-04-19T07:54:29;8.30;;;3.20;;
70899;SDS011;67902;52.154;5.430;2023-04-19T07:56:56;7.05;;;2.78;;
70899;SDS011;67902;52.154;5.430;2023-04-19T07:59:24;7.18;;;2.83;;
70899;SDS011;67902;52.154;5.430;2023-04-19T08:01:50;8.18;;;2.97;;
70899;SDS011;67902;52.154;5.430;2023-04-19T08:04:17;7.35;;;3.03;;
70899;SDS011;67902;52.154;5.430;2023-04-19T08:06:46;7.47;;;2.95;;
70899;SDS011;67902;52.154;5.430;2023-04-19T08:09:12;7.13;;;3.25;;
70899;SDS011;67902;52.154;5.430;2023-04-19T08:11:39;8.32;;;3.00;;
70899;SDS011;67902;52.154;5.430;2023-04-19T08:14:06;7.00;;;2.85;;
70899;SDS011;67902;52.154;5.430;2023-04-19T08:16:47;8.32;;;2.80;;
70899;SDS011;67902;52.154;5.430;2023-04-19T08:19:16;7.75;;;2.78;;
70899;SDS011;67902;52.154;5.430;2023-04-19T08:21:42;6.45;;;2.80;;
70899;SDS011;67902;52.154;5.430;2023-04-19T08:24:09;13.07;;;3.00;;
70899;SDS011;67902;52.154;5.430;2023-04-19T08:26:35;6.10;;;2.50;;
70899;SDS011;67902;52.154;5.430;2023-04-19T08:29:04;7.53;;;2.70;;
70899;SDS011;67902;52.154;5.430;2023-04-19T08:31:30;6.85;;;2.78;;
70899;SDS011;67902;52.154;5.430;2023-04-19T08:33:57;8.98;;;2.42;;
70899;SDS011;67902;52.154;5.430;2023-04-19T08:36:25;7.65;;;2.70;;
70899;SDS011;67902;52.154;5.430;2023-04-19T08:39:08;6.22;;;2.53;;
70899;SDS011;67902;52.154;5.430;2023-04-19T08:41:46;6.05;;;2.33;;
70899;SDS011;67902;52.154;5.430;2023-04-19T08:44:30;7.75;;;2.30;;
70899;SDS011;67902;52.154;5.430;2023-04-19T08:47:02;6.15;;;2.40;;
70899;SDS011;67902;52.154;5.430;2023-04-19T08:49:30;5.30;;;2.03;;
70899;SDS011;67902;52.154;5.430;2023-04-19T08:52:00;7.93;;;1.92;;
70899;SDS011;67902;52.154;5.430;2023-04-19T08:54:30;6.75;;;2.40;;
70899;SDS011;67902;52.154;5.430;2023-04-19T08:56:57;5.82;;;2.20;;
70899;SDS011;67902;52.154;5.430;2023-04-19T08:59:25;6.53;;;1.60;;
70899;SDS011;67902;52.154;5.430;2023-04-19T09:01:51;5.10;;;1.60;;
70899;SDS011;67902;52.154;5.430;2023-04-19T09:04:17;5.30;;;1.65;;
70899;SDS011;67902;52.154;5.430;2023-04-19T09:07:01;4.85;;;1.80;;
70899;SDS011;67902;52.154;5.430;2023-04-19T09:09:28;5.07;;;1.70;;
70899;SDS011;67902;52.154;5.430;2023-04-19T09:11:58;6.47;;;2.15;;
70899;SDS011;67902;52.154;5.430;2023-04-19T09:14:25;5.65;;;2.03;;
70899;SDS011;67902;52.154;5.430;2023-04-19T09:16:52;5.78;;;1.98;;
70899;SDS011;67902;52.154;5.430;2023-04-19T09:19:19;6.32;;;1.80;;
70899;SDS011;67902;52.154;5.430;2023-04-19T09:21:50;4.63;;;1.60;;
70899;SDS011;67902;52.154;5.430;2023-04-19T09:24:35;5.65;;;1.40;;
70899;SDS011;67902;52.154;5.430;2023-04-19T09:27:06;6.95;;;1.90;;
70899;SDS011;67902;52.154;5.430;2023-04-19T09:29:32;5.22;;;1.75;;
70899;SDS011;67902;52.154;5.430;2023-04-19T09:31:59;6.18;;;2.13;;
70899;SDS011;67902;52.154;5.430;2023-04-19T09:34:25;7.35;;;1.90;;
70899;SDS011;67902;52.154;5.430;2023-04-19T09:36:54;5.82;;;1.73;;
70899;SDS011;67902;52.154;5.430;2023-04-19T09:39:38;6.25;;;1.85;;
70899;SDS011;67902;52.154;5.430;2023-04-19T09:42:04;5.55;;;1.90;;
70899;SDS011;67902;52.154;5.430;2023-04-19T09:44:32;6.25;;;2.08;;
70899;SDS011;67902;52.154;5.430;2023-04-19T09:47:24;6.28;;;2.20;;
70899;SDS011;67902;52.154;5.430;2023-04-19T09:50:02;7.65;;;2.15;;
70899;SDS011;67902;52.154;5.430;2023-04-19T09:52:47;5.30;;;2.13;;
70899;SDS011;67902;52.154;5.430;2023-04-19T09:55:15;4.90;;;1.85;;
70899;SDS011;67902;52.154;5.430;2023-04-19T09:57:52;5.05;;;2.03;;
70899;SDS011;67902;52.154;5.430;2023-04-19T10:00:19;5.45;;;2.10;;
70899;SDS011;67902;52.154;5.430;2023-04-19T10:02:46;5.95;;;2.00;;
70899;SDS011;67902;52.154;5.430;2023-04-19T10:05:21;5.53;;;1.70;;
70899;SDS011;67902;52.154;5.430;2023-04-19T10:07:49;5.10;;;1.90;;
70899;SDS011;67902;52.154;5.430;2023-04-19T10:10:20;6.57;;;2.13;;
70899;SDS011;67902;52.154;5.430;2023-04-19T10:13:15;5.20;;;1.73;;
70899;SDS011;67902;52.154;5.430;2023-04-19T10:15:48;5.20;;;1.65;;
70899;SDS011;67902;52.154;5.430;2023-04-19T10:18:22;4.57;;;1.70;;
70899;SDS011;67902;52.154;5.430;2023-04-19T10:20:54;6.50;;;1.85;;
70899;SDS011;67902;52.154;5.430;2023-04-19T10:23:25;5.70;;;1.83;;
70899;SDS011;67902;52.154;5.430;2023-04-19T10:25:54;6.70;;;2.10;;
70899;SDS011;67902;52.154;5.430;2023-04-19T10:28:28;5.55;;;1.70;;
70899;SDS011;67902;52.154;5.430;2023-04-19T10:30:57;4.50;;;1.58;;
70899;SDS011;67902;52.154;5.430;2023-04-19T10:33:27;7.63;;;1.95;;
70899;SDS011;67902;52.154;5.430;2023-04-19T10:35:57;6.70;;;2.13;;
70899;SDS011;67902;52.154;5.430;2023-04-19T10:38:34;4.25;;;1.40;;
70899;SDS011;67902;52.154;5.430;2023-04-19T10:41:00;7.15;;;1.70;;
70899;SDS011;67902;52.154;5.430;2023-04-19T10:43:32;6.22;;;1.90;;
70899;SDS011;67902;52.154;5.430;2023-04-19T10:48:32;4.88;;;1.60;;
70899;SDS011;67902;52.154;5.430;2023-04-19T10:51:49;5.05;;;1.80;;
70899;SDS011;67902;52.154;5.430;2023-04-19T10:54:07;5.47;;;1.80;;
70899;SDS011;67902;52.154;5.430;2023-04-19T11:01:37;5.00;;;1.90;;
70899;SDS011;67902;52.154;5.430;2023-04-19T11:04:09;5.95;;;1.88;;
70899;SDS011;67902;52.154;5.430;2023-04-19T11:12:04;5.13;;;1.85;;
70899;SDS011;67902;52.154;5.430;2023-04-19T11:14:35;5.30;;;2.05;;
70899;SDS011;67902;52.154;5.430;2023-04-19T11:17:16;5.60;;;2.08;;
70899;SDS011;67902;52.154;5.430;2023-04-19T11:19:54;5.50;;;2.20;;
70899;SDS011;67902;52.154;5.430;2023-04-19T11:22:30;5.63;;;1.98;;
70899;SDS011;67902;52.154;5.430;2023-04-19T11:25:12;5.78;;;2.63;;
70899;SDS011;67902;52.154;5.430;2023-04-19T11:27:50;6.03;;;2.08;;
70899;SDS011;67902;52.154;5.430;2023-04-19T11:30:18;9.70;;;2.22;;
70899;SDS011;67902;52.154;5.430;2023-04-19T11:32:48;5.40;;;1.80;;
70899;SDS011;67902;52.154;5.430;2023-04-19T11:35:19;6.28;;;2.20;;
70899;SDS011;67902;52.154;5.430;2023-04-19T11:37:47;7.57;;;2.20;;
70899;SDS011;67902;52.154;5.430;2023-04-19T11:40:16;8.27;;;2.15;;
70899;SDS011;67902;52.154;5.430;2023-04-19T11:42:44;6.72;;;2.25;;
70899;SDS011;67902;52.154;5.430;2023-04-19T11:45:11;7.47;;;2.50;;
70899;SDS011;67902;52.154;5.430;2023-04-19T11:48:01;5.50;;;2.38;;
70899;SDS011;67902;52.154;5.430;2023-04-19T11:53:27;5.75;;;2.22;;
70899;SDS011;67902;52.154;5.430;2023-04-19T11:55:54;6.35;;;2.30;;
70899;SDS011;67902;52.154;5.430;2023-04-19T11:58:23;5.32;;;2.03;;
70899;SDS011;67902;52.154;5.430;2023-04-19T12:00:50;7.15;;;2.95;;
70899;SDS011;67902;52.154;5.430;2023-04-19T12:03:19;7.57;;;2.33;;
70899;SDS011;67902;52.154;5.430;2023-04-19T12:05:55;6.97;;;2.38;;
70899;SDS011;67902;52.154;5.430;2023-04-19T12:08:29;5.45;;;2.17;;
70899;SDS011;67902;52.154;5.430;2023-04-19T12:11:00;6.20;;;2.53;;
70899;SDS011;67902;52.154;5.430;2023-04-19T12:13:28;10.60;;;2.50;;
70899;SDS011;67902;52.154;5.430;2023-04-19T12:15:56;7.57;;;2.55;;
70899;SDS011;67902;52.154;5.430;2023-04-19T12:18:23;5.82;;;2.25;;
70899;SDS011;67902;52.154;5.430;2023-04-19T12:23:18;8.93;;;2.42;;
70899;SDS011;67902;52.154;5.430;2023-04-19T12:25:46;6.45;;;2.50;;
70899;SDS011;67902;52.154;5.430;2023-04-19T12:28:13;8.45;;;2.40;;
70899;SDS011;67902;52.154;5.430;2023-04-19T12:30:41;8.07;;;2.58;;
70899;SDS011;67902;52.154;5.430;2023-04-19T12:33:07;6.15;;;2.65;;
70899;SDS011;67902;52.154;5.430;2023-04-19T12:35:34;7.45;;;2.72;;
70899;SDS011;67902;52.154;5.430;2023-04-19T12:38:01;6.63;;;2.88;;
70899;SDS011;67902;52.154;5.430;2023-04-19T12:40:28;5.78;;;2.53;;
70899;SDS011;67902;52.154;5.430;2023-04-19T12:42:55;6.55;;;2.70;;
70899;SDS011;67902;52.154;5.430;2023-04-19T12:45:22;7.00;;;2.35;;
70899;SDS011;67902;52.154;5.430;2023-04-19T12:47:49;7.90;;;2.78;;
70899;SDS011;67902;52.154;5.430;2023-04-19T12:50:15;9.50;;;2.72;;
70899;SDS011;67902;52.154;5.430;2023-04-19T12:52:42;10.73;;;2.92;;
70899;SDS011;67902;52.154;5.430;2023-04-19T12:55:10;9.32;;;2.40;;
70899;SDS011;67902;52.154;5.430;2023-04-19T12:57:37;7.13;;;2.72;;
70899;SDS011;67902;52.154;5.430;2023-04-19T13:00:04;6.90;;;2.63;;
70899;SDS011;67902;52.154;5.430;2023-04-19T13:02:32;6.45;;;2.60;;
70899;SDS011;67902;52.154;5.430;2023-04-19T13:04:59;8.48;;;3.20;;
70899;SDS011;67902;52.154;5.430;2023-04-19T13:07:26;7.05;;;2.60;;
70899;SDS011;67902;52.154;5.430;2023-04-19T13:09:53;7.32;;;2.75;;
70899;SDS011;67902;52.154;5.430;2023-04-19T13:12:22;7.00;;;2.60;;
70899;SDS011;67902;52.154;5.430;2023-04-19T13:14:49;6.35;;;2.58;;
70899;SDS011;67902;52.154;5.430;2023-04-19T13:17:17;5.88;;;2.40;;
70899;SDS011;67902;52.154;5.430;2023-04-19T13:19:44;8.02;;;2.28;;
70899;SDS011;67902;52.154;5.430;2023-04-19T13:22:11;6.82;;;2.42;;
70899;SDS011;67902;52.154;5.430;2023-04-19T13:24:37;7.53;;;2.67;;
70899;SDS011;67902;52.154;5.430;2023-04-19T13:27:04;6.32;;;2.50;;
70899;SDS011;67902;52.154;5.430;2023-04-19T13:29:34;11.32;;;2.72;;
70899;SDS011;67902;52.154;5.430;2023-04-19T13:32:00;5.60;;;2.53;;
70899;SDS011;67902;52.154;5.430;2023-04-19T13:34:27;8.07;;;2.83;;
70899;SDS011;67902;52.154;5.430;2023-04-19T13:36:53;5.75;;;2.50;;
70899;SDS011;67902;52.154;5.430;2023-04-19T13:39:20;6.07;;;2.40;;
70899;SDS011;67902;52.154;5.430;2023-04-19T13:41:48;6.63;;;2.30;;
70899;SDS011;67902;52.154;5.430;2023-04-19T13:44:14;6.53;;;2.38;;
70899;SDS011;67902;52.154;5.430;2023-04-19T13:46:41;5.55;;;2.22;;
70899;SDS011;67902;52.154;5.430;2023-04-19T13:49:07;8.65;;;2.60;;
70899;SDS011;67902;52.154;5.430;2023-04-19T13:51:34;5.82;;;2.22;;
70899;SDS011;67902;52.154;5.430;2023-04-19T13:54:15;6.72;;;2.15;;
70899;SDS011;67902;52.154;5.430;2023-04-19T13:56:43;6.35;;;2.20;;
70899;SDS011;67902;52.154;5.430;2023-04-19T13:59:10;6.22;;;2.50;;
70899;SDS011;67902;52.154;5.430;2023-04-19T14:01:37;6.13;;;2.28;;
70899;SDS011;67902;52.154;5.430;2023-04-19T14:04:03;5.80;;;2.33;;
70899;SDS011;67902;52.154;5.430;2023-04-19T14:06:30;5.00;;;2.10;;
70899;SDS011;67902;52.154;5.430;2023-04-19T14:08:57;6.60;;;2.20;;
70899;SDS011;67902;52.154;5.430;2023-04-19T14:11:24;5.45;;;2.25;;
70899;SDS011;67902;52.154;5.430;2023-04-19T14:13:51;5.90;;;1.98;;
70899;SDS011;67902;52.154;5.430;2023-04-19T14:16:18;6.60;;;2.13;;
70899;SDS011;67902;52.154;5.430;2023-04-19T14:18:45;4.88;;;2.00;;
70899;SDS011;67902;52.154;5.430;2023-04-19T14:21:13;4.93;;;2.13;;
70899;SDS011;67902;52.154;5.430;2023-04-19T14:23:39;5.32;;;2.08;;
70899;SDS011;67902;52.154;5.430;2023-04-19T14:26:06;6.82;;;2.10;;
70899;SDS011;67902;52.154;5.430;2023-04-19T14:28:32;5.18;;;2.20;;
70899;SDS011;67902;52.154;5.430;2023-04-19T14:30:59;7.00;;;2.63;;
70899;SDS011;67902;52.154;5.430;2023-04-19T14:33:25;6.25;;;2.47;;
70899;SDS011;67902;52.154;5.430;2023-04-19T14:35:52;5.53;;;2.03;;
70899;SDS011;67902;52.154;5.430;2023-04-19T14:38:18;7.97;;;2.22;;
70899;SDS011;67902;52.154;5.430;2023-04-19T14:40:45;8.27;;;2.30;;
70899;SDS011;67902;52.154;5.430;2023-04-19T14:43:13;6.95;;;2.10;;
70899;SDS011;67902;52.154;5.430;2023-04-19T14:45:40;5.63;;;2.40;;
70899;SDS011;67902;52.154;5.430;2023-04-19T14:50:33;6.30;;;2.20;;
70899;SDS011;67902;52.154;5.430;2023-04-19T14:52:59;6.03;;;2.03;;
70899;SDS011;67902;52.154;5.430;2023-04-19T14:55:26;5.97;;;2.20;;
70899;SDS011;67902;52.154;5.430;2023-04-19T14:57:52;6.60;;;2.47;;
70899;SDS011;67902;52.154;5.430;2023-04-19T15:00:19;5.80;;;2.35;;
70899;SDS011;67902;52.154;5.430;2023-04-19T15:05:12;12.25;;;2.58;;
70899;SDS011;67902;52.154;5.430;2023-04-19T15:07:39;9.63;;;2.80;;
70899;SDS011;67902;52.154;5.430;2023-04-19T15:10:06;7.97;;;2.58;;